Time;durP1;ratioP1;P1;durP2;ratioP2;P2;SDS_P1;SDS_P2;PMS_P1;PMS_P2;Temp;Humidity;BMP_temperature;BMP_pressure;BME280_temperature;BME280_humidity;BME280_pressure;Samples;Min_cycle;Max_cycle;Signal;HPM_P1;HPM_P2
2022/02/28 00:00:53;;;;;;;9.40;4.10;;;;;;;4.10;60.44;103032.47;5040275;28;20025;-73
2022/02/28 00:03:19;;;;;;;9.15;4.28;;;;;;;4.02;61.01;103029.53;5054963;28;20033;-69
2022/02/28 00:05:45;;;;;;;8.50;3.97;;;;;;;4.05;60.83;103026.81;5036190;28;20128;-70
2022/02/28 00:08:10;;;;;;;7.38;3.65;;;;;;;4.03;60.96;103033.75;5054084;28;20103;-70
2022/02/28 00:10:36;;;;;;;11.38;4.20;;;;;;;3.96;60.95;103035.84;5036422;28;20349;-70
2022/02/28 00:13:02;;;;;;;9.38;4.13;;;;;;;3.97;60.53;103037.50;5036352;28;20029;-70
2022/02/28 00:15:27;;;;;;;10.18;4.15;;;;;;;4.00;60.26;103037.31;5054100;28;20035;-69
2022/02/28 00:17:52;;;;;;;9.88;3.95;;;;;;;3.94;61.27;103032.56;5054208;28;20028;-69
2022/02/28 00:20:18;;;;;;;9.95;4.30;;;;;;;3.88;61.19;103030.31;5054128;28;20021;-69
2022/02/28 00:22:44;;;;;;;8.30;4.05;;;;;;;3.69;61.59;102997.31;5036371;28;20146;-69
2022/02/28 00:25:11;;;;;;;13.10;3.90;;;;;;;3.85;61.76;103022.81;5035724;28;20025;-69
2022/02/28 00:27:36;;;;;;;10.40;4.90;;;;;;;3.80;61.61;103020.56;5052392;28;20178;-69
2022/02/28 00:30:05;;;;;;;11.27;4.40;;;;;;;3.74;61.79;103022.63;5053758;28;20052;-70
2022/02/28 00:32:30;;;;;;;7.60;3.67;;;;;;;3.66;63.11;103024.81;5035923;28;20025;-69
2022/02/28 00:34:56;;;;;;;9.93;4.10;;;;;;;3.46;63.13;103013.13;5053846;28;20108;-69
2022/02/28 00:37:21;;;;;;;9.13;3.85;;;;;;;3.49;63.38;103020.63;5053883;28;20238;-70
2022/02/28 00:39:47;;;;;;;12.98;3.75;;;;;;;3.56;62.58;103012.50;5035913;28;20028;-70
2022/02/28 00:42:12;;;;;;;8.80;3.80;;;;;;;3.65;62.29;103015.47;5053729;28;20510;-70
2022/02/28 00:44:38;;;;;;;8.60;4.10;;;;;;;3.64;62.62;103014.66;5035929;28;20472;-69
2022/02/28 00:47:05;;;;;;;8.75;4.32;;;;;;;3.57;62.40;103011.63;5053673;28;20031;-69
2022/02/28 00:49:30;;;;;;;12.20;4.03;;;;;;;3.51;62.75;103021.34;5035826;28;20021;-70
2022/02/28 00:51:56;;;;;;;12.18;4.05;;;;;;;3.48;62.55;103014.72;5035731;28;20025;-70
2022/02/28 00:54:21;;;;;;;8.82;3.90;;;;;;;3.47;62.69;103005.38;5053423;28;20035;-69
2022/02/28 00:56:46;;;;;;;7.68;3.58;;;;;;;3.39;62.32;103008.38;5053521;28;20021;-70
2022/02/28 00:59:12;;;;;;;10.02;3.88;;;;;;;3.48;62.51;103001.94;5053599;28;20053;-69
2022/02/28 01:01:37;;;;;;;10.50;3.83;;;;;;;3.43;62.72;103003.09;5053455;28;20029;-69
2022/02/28 01:04:04;;;;;;;10.82;4.15;;;;;;;3.51;62.46;103013.69;5053464;28;20024;-69
2022/02/28 01:06:30;;;;;;;9.32;3.90;;;;;;;3.49;62.77;103010.41;5053312;28;20041;-70
2022/02/28 01:08:56;;;;;;;10.23;4.03;;;;;;;3.41;65.83;103007.44;5053340;28;20029;-69
2022/02/28 01:11:21;;;;;;;8.15;3.95;;;;;;;3.37;63.26;103006.81;5053316;28;20086;-69
2022/02/28 01:13:47;;;;;;;8.10;3.70;;;;;;;3.44;63.02;103004.72;5053255;28;20373;-70
2022/02/28 01:16:12;;;;;;;9.13;3.85;;;;;;;3.42;62.12;103009.09;5053246;28;20025;-70
2022/02/28 01:18:37;;;;;;;8.52;3.70;;;;;;;3.31;62.54;103009.69;5053346;28;20032;-69
2022/02/28 01:21:03;;;;;;;8.63;3.90;;;;;;;3.26;63.15;103014.25;5053287;28;20024;-69
2022/02/28 01:23:28;;;;;;;7.30;3.70;;;;;;;3.26;62.78;103012.50;5053207;28;20104;-69
2022/02/28 01:25:54;;;;;;;9.32;3.83;;;;;;;3.35;62.89;103011.16;5053126;28;20028;-70
2022/02/28 01:28:21;;;;;;;7.93;3.78;;;;;;;3.27;62.84;103009.03;5053455;28;20132;-69
2022/02/28 01:30:46;;;;;;;6.68;3.63;;;;;;;3.29;62.64;103001.28;5053054;28;20057;-70
2022/02/28 01:33:12;;;;;;;9.48;3.78;;;;;;;3.21;62.78;102991.47;5053143;28;20108;-70
2022/02/28 01:35:37;;;;;;;8.85;3.92;;;;;;;3.39;62.15;103004.97;5035192;28;20025;-69
2022/02/28 01:38:03;;;;;;;10.05;4.03;;;;;;;3.19;62.70;102993.28;5052965;28;20032;-69
2022/02/28 01:40:28;;;;;;;7.05;3.60;;;;;;;3.14;62.47;103006.34;5037262;28;20016;-70
2022/02/28 01:42:54;;;;;;;8.27;3.85;;;;;;;3.25;62.27;102999.78;5059531;28;20033;-69
2022/02/28 01:45:22;;;;;;;7.22;3.70;;;;;;;3.22;62.38;102995.69;5059626;28;20380;-69
2022/02/28 01:47:53;;;;;;;8.63;3.80;;;;;;;3.21;62.27;102988.09;5059516;28;20025;-72
2022/02/28 01:50:19;;;;;;;9.38;3.60;;;;;;;2.93;62.51;102962.34;5041779;28;20123;-69
2022/02/28 01:52:45;;;;;;;7.10;3.45;;;;;;;3.21;62.91;103013.66;5059576;28;20064;-69
2022/02/28 01:55:12;;;;;;;8.15;3.63;;;;;;;3.10;64.33;103016.78;5041478;28;20059;-70
2022/02/28 01:57:40;;;;;;;8.93;3.80;;;;;;;3.03;63.52;103012.94;5059471;28;20541;-69
2022/02/28 02:00:08;;;;;;;8.38;3.88;;;;;;;3.25;62.18;103020.25;5041395;28;20050;-70
2022/02/28 02:02:33;;;;;;;10.85;3.38;;;;;;;3.31;61.73;103018.19;5059387;28;20051;-70
2022/02/28 02:04:59;;;;;;;8.07;4.30;;;;;;;3.33;61.83;103023.19;5059252;28;20041;-70
2022/02/28 02:07:24;;;;;;;7.18;3.80;;;;;;;3.39;61.38;103021.16;5059346;28;20037;-70
2022/02/28 02:09:49;;;;;;;7.22;3.63;;;;;;;3.30;61.30;103028.47;5041457;28;20101;-69
2022/02/28 02:12:15;;;;;;;8.43;3.90;;;;;;;3.25;61.58;103020.25;5059425;28;20035;-70
2022/02/28 02:14:41;;;;;;;8.13;4.05;;;;;;;3.26;61.70;103019.34;5059319;28;20029;-70
2022/02/28 02:17:06;;;;;;;9.63;3.75;;;;;;;3.19;61.97;103026.50;5059395;28;20104;-70
2022/02/28 02:19:34;;;;;;;9.02;3.40;;;;;;;3.14;62.43;103026.78;5059331;28;20059;-70
2022/02/28 02:21:59;;;;;;;8.43;3.80;;;;;;;3.17;61.93;103034.28;5059442;28;20056;-69
2022/02/28 02:24:24;;;;;;;9.18;3.58;;;;;;;3.21;62.19;103026.44;5059242;28;20479;-70
2022/02/28 02:26:50;;;;;;;7.78;3.83;;;;;;;3.23;61.94;103024.63;5059231;28;20480;-70
2022/02/28 02:29:15;;;;;;;9.35;3.72;;;;;;;3.21;62.27;103027.25;5041251;28;20033;-70
2022/02/28 02:31:40;;;;;;;6.35;3.53;;;;;;;3.24;62.07;103028.81;5041334;28;20093;-70
2022/02/28 02:34:06;;;;;;;8.65;3.95;;;;;;;3.19;61.80;103023.13;5059056;28;20056;-70
2022/02/28 02:36:31;;;;;;;8.52;4.03;;;;;;;3.11;62.39;103021.84;5059143;28;20482;-69
2022/02/28 02:38:56;;;;;;;9.43;3.97;;;;;;;3.15;62.42;103030.16;5041479;28;20021;-68
2022/02/28 02:41:21;;;;;;;8.15;3.97;;;;;;;2.88;62.78;102991.59;5041228;28;20021;-69
2022/02/28 02:43:48;;;;;;;6.65;4.13;;;;;;;3.07;62.24;103017.78;5058990;28;20016;-69
2022/02/28 02:46:14;;;;;;;7.03;3.75;;;;;;;3.00;63.08;103005.44;5041115;28;20044;-69
2022/02/28 02:48:39;;;;;;;8.20;3.90;;;;;;;3.05;62.88;103009.41;5041165;28;20392;-69
2022/02/28 02:51:04;;;;;;;7.45;3.90;;;;;;;3.07;62.38;103010.13;5041119;28;20021;-70
2022/02/28 02:53:30;;;;;;;13.25;3.78;;;;;;;3.03;62.70;103012.94;5036744;28;20075;-69
2022/02/28 02:55:55;;;;;;;7.78;4.05;;;;;;;2.91;63.35;103005.03;5055704;28;20029;-70
2022/02/28 02:58:21;;;;;;;10.32;4.15;;;;;;;3.04;62.59;103012.84;5037885;28;20028;-70
2022/02/28 03:00:50;;;;;;;7.93;3.97;;;;;;;2.89;62.92;102988.94;5037911;28;20029;-70
2022/02/28 03:03:19;;;;;;;8.65;4.00;;;;;;;2.88;63.10;103012.84;5037856;28;20031;-69
2022/02/28 03:05:45;;;;;;;10.38;4.32;;;;;;;2.89;63.10;102999.16;5037544;28;20052;-71
2022/02/28 03:08:11;;;;;;;8.73;4.07;;;;;;;2.84;63.13;103006.25;5055601;28;20112;-69
2022/02/28 03:10:36;;;;;;;11.10;4.13;;;;;;;2.80;63.32;103006.50;5055614;28;20163;-70
2022/02/28 03:13:01;;;;;;;13.13;4.18;;;;;;;2.74;63.69;102994.88;5055544;28;20056;-69
2022/02/28 03:15:27;;;;;;;9.73;4.28;;;;;;;2.81;63.25;102998.75;5055356;28;20550;-69
2022/02/28 03:17:52;;;;;;;13.13;4.25;;;;;;;2.82;63.57;102995.31;5055402;28;20126;-70
2022/02/28 03:20:17;;;;;;;8.50;4.28;;;;;;;2.88;63.22;103000.09;5037515;28;20029;-70
2022/02/28 03:22:43;;;;;;;8.32;4.20;;;;;;;2.81;63.20;102993.63;5055276;28;20032;-69
2022/02/28 03:25:08;;;;;;;7.80;4.10;;;;;;;2.74;63.47;102997.44;5055241;28;20044;-69
2022/02/28 03:27:35;;;;;;;8.63;4.10;;;;;;;2.68;64.12;102993.47;5037414;28;20020;-69
2022/02/28 03:30:01;;;;;;;8.95;3.58;;;;;;;2.70;63.89;102988.28;5055191;28;20025;-70
2022/02/28 03:32:26;;;;;;;7.63;4.25;;;;;;;2.65;64.03;102985.97;5037324;28;20025;-69
2022/02/28 03:34:52;;;;;;;9.27;4.13;;;;;;;2.66;63.68;102979.97;5055046;28;20088;-69
2022/02/28 03:37:17;;;;;;;8.73;4.00;;;;;;;2.66;63.97;102986.81;5037155;28;20074;-69
2022/02/28 03:39:42;;;;;;;9.55;4.25;;;;;;;2.66;64.10;102984.25;5054920;28;20112;-69
2022/02/28 03:42:08;;;;;;;10.77;4.40;;;;;;;2.70;63.92;102991.69;5055096;28;20029;-69
2022/02/28 03:44:33;;;;;;;6.90;3.90;;;;;;;2.55;64.29;102995.00;5037055;28;20029;-69
2022/02/28 03:46:58;;;;;;;8.20;4.00;;;;;;;2.61;64.28;102996.44;5054871;28;20020;-69
2022/02/28 03:49:24;;;;;;;9.32;4.15;;;;;;;2.54;64.53;103000.22;5036859;28;20021;-69
2022/02/28 03:51:49;;;;;;;10.88;4.28;;;;;;;2.52;64.44;103004.56;5036851;28;20029;-69
2022/02/28 03:54:15;;;;;;;9.95;4.43;;;;;;;2.49;64.41;102993.59;5054561;28;20033;-68
2022/02/28 03:56:42;;;;;;;10.30;4.03;;;;;;;2.35;64.67;102987.56;5054772;28;20025;-69
2022/02/28 03:59:10;;;;;;;9.52;4.35;;;;;;;2.40;64.79;102993.28;5054661;28;20024;-68
2022/02/28 04:01:35;;;;;;;7.63;4.30;;;;;;;2.34;65.19;102996.13;5054567;28;20074;-69
2022/02/28 04:04:02;;;;;;;11.23;4.47;;;;;;;2.39;65.13;102992.44;5036389;28;20032;-69
2022/02/28 04:06:29;;;;;;;9.13;4.05;;;;;;;2.38;64.71;102998.44;5036459;28;20045;-68
2022/02/28 04:08:55;;;;;;;8.00;3.95;;;;;;;2.40;64.99;102983.88;5036576;28;20071;-70
2022/02/28 04:11:20;;;;;;;6.60;3.88;;;;;;;2.38;65.04;102987.41;5036493;28;20024;-69
2022/02/28 04:13:45;;;;;;;9.25;3.90;;;;;;;2.40;65.15;102991.53;5054337;28;20464;-69
2022/02/28 04:16:11;;;;;;;8.60;4.00;;;;;;;2.32;65.06;102991.09;5036386;28;20566;-69
2022/02/28 04:18:36;;;;;;;11.93;4.18;;;;;;;2.36;64.99;102987.50;5054381;28;20017;-69
2022/02/28 04:21:01;;;;;;;9.35;4.18;;;;;;;2.24;65.34;102991.50;5054218;28;20021;-69
2022/02/28 04:23:27;;;;;;;10.30;4.15;;;;;;;2.26;65.39;102987.13;5054126;28;20021;-69
2022/02/28 04:25:52;;;;;;;7.40;4.25;;;;;;;2.22;65.54;102985.66;5054217;28;20447;-70
2022/02/28 04:28:17;;;;;;;9.52;4.10;;;;;;;2.27;65.42;102982.84;5054093;28;20033;-69
2022/02/28 04:30:43;;;;;;;8.25;4.15;;;;;;;2.30;65.42;102979.31;5054102;28;20017;-69
2022/02/28 04:33:08;;;;;;;12.60;4.13;;;;;;;2.21;65.31;102990.81;5054051;28;20100;-68
2022/02/28 04:35:33;;;;;;;6.80;3.90;;;;;;;2.17;65.76;102989.34;5036081;28;20025;-68
2022/02/28 04:37:59;;;;;;;8.57;3.90;;;;;;;2.22;65.85;102983.09;5054000;28;20468;-69
2022/02/28 04:40:24;;;;;;;11.18;4.13;;;;;;;2.21;65.42;102981.44;5036351;28;20025;-69
2022/02/28 04:42:49;;;;;;;10.48;4.30;;;;;;;2.26;65.27;102992.25;5054017;28;20369;-69
2022/02/28 04:45:15;;;;;;;8.73;3.95;;;;;;;2.08;66.34;102980.44;5036011;28;20024;-68
2022/02/28 04:47:40;;;;;;;8.98;4.05;;;;;;;2.21;65.47;102984.00;5036062;28;20464;-69
2022/02/28 04:50:05;;;;;;;9.02;4.30;;;;;;;2.06;65.81;102964.38;5053858;28;20357;-69
2022/02/28 04:52:31;;;;;;;9.18;4.30;;;;;;;2.06;65.73;102989.06;5053898;28;20035;-69
2022/02/28 04:54:56;;;;;;;8.55;4.07;;;;;;;1.99;66.68;102979.16;5053921;28;20487;-69
2022/02/28 04:57:21;;;;;;;10.63;4.32;;;;;;;1.94;66.70;102975.19;5054093;28;20033;-69
2022/02/28 04:59:47;;;;;;;9.07;4.32;;;;;;;1.92;66.41;102970.16;5045389;28;20116;-77
2022/02/28 05:02:12;;;;;;;8.80;4.15;;;;;;;1.88;66.55;102978.06;5070695;28;20028;-77
2022/02/28 05:04:37;;;;;;;12.85;5.20;;;;;;;1.95;66.16;102974.28;5070651;28;20039;-76
2022/02/28 05:07:03;;;;;;;8.55;4.10;;;;;;;1.93;66.64;102971.81;5070610;28;20494;-77
2022/02/28 05:09:28;;;;;;;8.65;4.25;;;;;;;1.90;66.82;102974.53;5070837;28;20025;-75
2022/02/28 05:11:54;;;;;;;9.38;4.32;;;;;;;1.86;66.67;102973.00;5070275;28;20036;-76
2022/02/28 05:14:19;;;;;;;9.70;3.97;;;;;;;1.73;66.83;102972.81;5053245;28;20036;-77
2022/02/28 05:16:44;;;;;;;9.82;4.20;;;;;;;1.81;66.91;102974.97;5062876;28;20025;-75
2022/02/28 05:19:10;;;;;;;9.80;4.43;;;;;;;1.78;67.22;102967.47;5055276;28;20031;-71
2022/02/28 05:21:35;;;;;;;10.00;4.32;;;;;;;1.77;66.82;102966.66;5054683;28;20522;-71
2022/02/28 05:24:02;;;;;;;9.52;4.22;;;;;;;1.82;66.49;102968.16;5036469;28;20441;-72
2022/02/28 05:26:27;;;;;;;12.55;4.68;;;;;;;1.64;67.09;102960.53;5053877;28;20104;-71
2022/02/28 05:28:52;;;;;;;8.82;4.28;;;;;;;1.58;67.82;102969.28;5035902;28;20064;-72
2022/02/28 05:31:18;;;;;;;9.18;4.40;;;;;;;1.57;68.41;102966.81;5053998;28;20025;-71
2022/02/28 05:33:43;;;;;;;10.95;5.22;;;;;;;1.44;68.57;102966.59;5053905;28;20499;-71
2022/02/28 05:36:08;;;;;;;8.82;4.10;;;;;;;1.58;67.98;102964.19;5035944;28;20021;-71
2022/02/28 05:38:34;;;;;;;8.98;4.45;;;;;;;1.61;68.08;102954.72;5053466;28;20112;-71
2022/02/28 05:40:59;;;;;;;7.65;4.10;;;;;;;1.61;67.59;102952.19;5035521;28;20021;-71
2022/02/28 05:43:24;;;;;;;9.27;4.18;;;;;;;1.52;68.56;102963.66;5053366;28;20028;-71
2022/02/28 05:45:50;;;;;;;12.20;4.47;;;;;;;1.46;67.92;102958.84;5053357;28;20521;-72
2022/02/28 05:48:15;;;;;;;12.30;5.13;;;;;;;1.56;67.79;102965.16;5035391;28;20443;-72
2022/02/28 05:50:41;;;;;;;6.97;4.05;;;;;;;1.60;68.24;102978.56;5053242;28;20096;-71
2022/02/28 05:53:06;;;;;;;7.88;4.57;;;;;;;1.47;68.42;102976.63;5052966;28;20048;-71
2022/02/28 05:55:33;;;;;;;10.07;4.57;;;;;;;1.52;67.78;102986.56;5052987;28;20495;-72
2022/02/28 05:57:58;;;;;;;10.52;4.35;;;;;;;1.48;67.94;102973.16;5053023;28;20029;-71
2022/02/28 06:00:23;;;;;;;11.82;4.68;;;;;;;1.48;68.38;102988.47;5034999;28;20074;-71
2022/02/28 06:02:51;;;;;;;7.57;4.57;;;;;;;1.49;68.01;102989.28;5035004;28;20031;-71
2022/02/28 06:05:16;;;;;;;9.13;4.35;;;;;;;1.61;67.76;102992.97;5052851;28;20044;-71
2022/02/28 06:07:41;;;;;;;7.82;4.22;;;;;;;1.29;68.03;102957.91;5041262;28;20501;-74
2022/02/28 06:10:08;;;;;;;9.13;4.70;;;;;;;1.50;68.35;102990.94;5040785;28;20044;-73
2022/02/28 06:12:33;;;;;;;11.90;4.70;;;;;;;1.45;67.78;102982.69;5058674;28;20033;-72
2022/02/28 06:14:59;;;;;;;11.13;4.60;;;;;;;1.53;68.65;102995.91;5058944;28;20036;-71
2022/02/28 06:17:24;;;;;;;8.95;4.82;;;;;;;1.24;68.84;102993.00;5052692;28;20541;-72
2022/02/28 06:19:50;;;;;;;10.95;4.88;;;;;;;1.39;68.47;102996.53;5052870;28;20036;-71
2022/02/28 06:22:16;;;;;;;13.85;5.18;;;;;;;1.52;68.16;103000.13;5034911;28;20028;-71
2022/02/28 06:24:41;;;;;;;11.90;4.63;;;;;;;1.53;68.02;103001.00;5052631;28;20036;-71
2022/02/28 06:27:07;;;;;;;11.85;4.82;;;;;;;1.45;68.27;102997.97;5036720;28;20440;-71
2022/02/28 06:29:32;;;;;;;8.65;4.78;;;;;;;1.34;69.22;103011.22;5038737;28;20099;-71
2022/02/28 06:31:57;;;;;;;9.55;4.72;;;;;;;1.37;68.47;103010.25;5056489;28;20036;-71
2022/02/28 06:34:23;;;;;;;10.15;4.55;;;;;;;1.01;69.69;102975.41;5038208;28;20044;-71
2022/02/28 06:36:48;;;;;;;10.23;5.15;;;;;;;1.22;69.08;102997.34;5038513;28;20078;-72
2022/02/28 06:39:14;;;;;;;9.77;5.30;;;;;;;1.24;69.52;103013.38;5038276;28;20024;-71
2022/02/28 06:41:40;;;;;;;14.48;5.60;;;;;;;1.30;69.45;103017.38;5056216;28;20029;-71
2022/02/28 06:44:06;;;;;;;11.55;5.15;;;;;;;1.13;70.05;103005.41;5056154;28;20024;-71
2022/02/28 06:46:32;;;;;;;9.93;5.25;;;;;;;1.25;69.95;103009.94;5037360;28;20027;-72
2022/02/28 06:48:58;;;;;;;10.35;5.55;;;;;;;1.19;69.95;103014.50;5037054;28;20029;-71
2022/02/28 06:51:23;;;;;;;10.35;5.47;;;;;;;1.19;69.87;103017.03;5037387;28;20104;-72
2022/02/28 06:53:48;;;;;;;9.40;4.88;;;;;;;1.20;69.62;103016.94;5054996;28;20021;-71
2022/02/28 06:56:14;;;;;;;13.82;5.15;;;;;;;1.32;69.96;103021.50;5037458;28;20029;-71
2022/02/28 06:58:39;;;;;;;13.35;5.07;;;;;;;1.20;69.61;102994.03;5055845;28;20021;-71
2022/02/28 07:01:06;;;;;;;14.65;5.43;;;;;;;1.53;68.24;103029.03;5055789;28;20078;-71
2022/02/28 07:03:32;;;;;;;11.55;5.30;;;;;;;1.52;68.17;103028.19;5037913;28;20024;-71
2022/02/28 07:05:58;;;;;;;14.40;5.28;;;;;;;1.60;68.00;103035.47;5037556;28;20484;-71
2022/02/28 07:08:25;;;;;;;10.30;5.10;;;;;;;1.60;67.72;103032.09;5037734;28;20029;-72
2022/02/28 07:10:52;;;;;;;13.43;5.40;;;;;;;1.61;67.97;103031.19;5037776;28;20472;-71
2022/02/28 07:13:19;;;;;;;9.80;4.82;;;;;;;1.56;68.30;103033.97;5037754;28;20029;-71
2022/02/28 07:15:46;;;;;;;17.25;5.30;;;;;;;1.67;67.92;103029.19;5037372;28;20098;-72
2022/02/28 07:18:13;;;;;;;16.02;5.22;;;;;;;1.79;67.04;103036.25;5055372;28;20075;-72
2022/02/28 07:20:39;;;;;;;13.55;5.97;;;;;;;1.68;67.71;103043.56;5037380;28;20388;-71
2022/02/28 07:23:05;;;;;;;14.93;6.22;;;;;;;1.88;67.69;103055.38;5037319;28;20021;-71
2022/02/28 07:25:31;;;;;;;10.07;5.50;;;;;;;1.96;66.53;103055.81;5037425;28;20035;-72
2022/02/28 07:27:56;;;;;;;12.25;5.80;;;;;;;1.93;66.89;103055.16;5037370;28;20025;-71
2022/02/28 07:30:22;;;;;;;11.27;5.35;;;;;;;1.89;66.71;103056.19;5054098;28;20222;-71
2022/02/28 07:32:48;;;;;;;9.82;5.15;;;;;;;2.04;66.68;103045.22;5055468;28;20043;-72
2022/02/28 07:35:14;;;;;;;14.65;5.28;;;;;;;1.91;66.94;103046.75;5055852;28;20431;-73
2022/02/28 07:37:40;;;;;;;13.32;6.00;;;;;;;2.15;66.37;103065.94;5037046;28;20021;-72
2022/02/28 07:40:06;;;;;;;12.68;5.60;;;;;;;3.98;61.52;103069.03;5053652;28;20032;-73
2022/02/28 07:42:32;;;;;;;9.85;5.80;;;;;;;6.59;53.24;103058.66;5053897;28;20402;-71
2022/02/28 07:44:57;;;;;;;9.70;6.05;;;;;;;6.77;51.91;103059.16;5036002;28;20036;-72
2022/02/28 07:47:22;;;;;;;13.02;6.93;;;;;;;8.10;47.99;103066.75;5034358;28;20025;-74
2022/02/28 07:49:48;;;;;;;13.38;5.55;;;;;;;8.71;46.68;103072.41;5054247;28;20403;-73
2022/02/28 07:52:13;;;;;;;17.13;6.38;;;;;;;9.54;45.16;103072.81;5054801;28;20475;-72
2022/02/28 07:54:39;;;;;;;9.23;5.30;;;;;;;9.33;45.25;103052.13;5036891;28;20460;-73
2022/02/28 07:57:04;;;;;;;9.05;5.15;;;;;;;10.70;41.52;103062.31;5053683;28;20039;-74
2022/02/28 07:59:29;;;;;;;13.23;6.55;;;;;;;9.59;43.26;103066.34;5053856;28;20028;-74
2022/02/28 08:01:55;;;;;;;12.90;5.60;;;;;;;10.54;40.92;103065.41;5053475;28;20033;-73
2022/02/28 08:04:20;;;;;;;13.70;5.97;;;;;;;11.37;38.97;103065.97;5035783;28;20013;-73
2022/02/28 08:06:45;;;;;;;11.98;6.25;;;;;;;11.35;38.80;103065.28;5056258;28;20049;-73
2022/02/28 08:09:11;;;;;;;9.85;5.10;;;;;;;9.96;41.08;103071.06;5053660;28;20388;-74
2022/02/28 08:11:36;;;;;;;10.90;5.53;;;;;;;11.62;38.04;103074.94;5034722;28;20478;-73
2022/02/28 08:14:02;;;;;;;9.52;5.68;;;;;;;11.97;37.46;103071.78;5052433;28;20031;-73
2022/02/28 08:16:28;;;;;;;9.95;5.60;;;;;;;12.71;35.85;103070.94;5053992;28;20100;-72
2022/02/28 08:18:53;;;;;;;7.85;5.10;;;;;;;13.10;35.46;103076.72;5036480;28;20483;-73
2022/02/28 08:21:18;;;;;;;10.15;4.97;;;;;;;13.61;34.52;103074.44;5036191;28;20025;-73
2022/02/28 08:23:44;;;;;;;10.48;5.10;;;;;;;13.31;34.23;103055.66;5053743;28;20139;-71
2022/02/28 08:26:09;;;;;;;8.98;5.13;;;;;;;12.99;34.27;103070.91;5033221;28;20078;-72
2022/02/28 08:28:35;;;;;;;7.95;4.90;;;;;;;11.52;36.85;103060.22;5052478;28;20476;-73
2022/02/28 08:31:00;;;;;;;9.25;5.10;;;;;;;13.28;33.92;103055.16;5052844;28;20025;-71
2022/02/28 08:33:25;;;;;;;10.75;5.00;;;;;;;12.63;35.10;103063.91;5055889;28;20106;-72
2022/02/28 08:35:51;;;;;;;8.93;4.60;;;;;;;12.81;34.12;103058.72;5036391;28;20025;-72
2022/02/28 08:38:17;;;;;;;10.27;5.00;;;;;;;13.70;32.73;103055.31;5054958;28;20074;-72
2022/02/28 08:40:44;;;;;;;8.68;4.85;;;;;;;13.22;33.27;103051.34;5053959;28;20029;-72
2022/02/28 08:43:09;;;;;;;7.43;4.90;;;;;;;14.52;31.47;103047.16;5035243;28;20549;-71
2022/02/28 08:45:35;;;;;;;7.55;4.80;;;;;;;14.25;31.74;103054.16;5034197;28;20013;-72
2022/02/28 08:48:00;;;;;;;7.95;4.70;;;;;;;13.45;32.42;103046.53;5033949;28;20111;-71
2022/02/28 08:50:25;;;;;;;9.20;4.60;;;;;;;12.21;34.04;103057.53;5035063;28;20025;-72
2022/02/28 08:52:50;;;;;;;11.00;4.80;;;;;;;13.22;32.73;103046.16;5054133;28;20029;-73
2022/02/28 08:55:16;;;;;;;9.00;4.50;;;;;;;13.51;31.67;103024.31;5037507;28;20028;-73
2022/02/28 08:57:41;;;;;;;7.88;4.60;;;;;;;14.09;30.78;103043.69;5038128;28;20055;-72
2022/02/28 09:00:09;;;;;;;9.38;4.82;;;;;;;13.80;30.90;103044.81;5052992;28;20433;-72
2022/02/28 09:02:35;;;;;;;6.97;4.35;;;;;;;13.99;30.44;103030.81;5035691;28;20068;-73
2022/02/28 09:05:01;;;;;;;6.55;4.75;;;;;;;14.21;30.64;103027.66;5035681;28;20045;-72
2022/02/28 09:07:26;;;;;;;9.43;4.38;;;;;;;14.34;29.67;103027.22;5053724;28;20388;-74
2022/02/28 09:09:52;;;;;;;6.93;4.53;;;;;;;13.98;30.09;103036.97;5035675;28;20025;-73
2022/02/28 09:12:17;;;;;;;8.38;4.72;;;;;;;14.66;29.33;103033.53;5053412;28;20040;-73
2022/02/28 09:14:42;;;;;;;6.60;4.43;;;;;;;14.74;28.61;103046.56;5035463;28;20029;-72
2022/02/28 09:17:08;;;;;;;8.73;4.88;;;;;;;13.62;29.96;103041.47;5053449;28;20032;-72
2022/02/28 09:19:33;;;;;;;7.60;4.63;;;;;;;14.06;29.82;103031.00;5037120;28;20021;-73
2022/02/28 09:21:59;;;;;;;7.95;4.35;;;;;;;14.86;28.22;103037.47;5055657;28;20021;-73
2022/02/28 09:24:24;;;;;;;7.55;4.60;;;;;;;14.12;28.92;103036.38;5053671;28;20391;-71
2022/02/28 09:26:49;;;;;;;8.15;4.47;;;;;;;15.30;27.69;103024.16;5037490;28;20021;-72
2022/02/28 09:29:15;;;;;;;8.68;5.00;;;;;;;15.35;27.75;103008.03;5051446;28;20506;-73
2022/02/28 09:31:41;;;;;;;5.88;4.25;;;;;;;15.71;27.32;103008.50;5051644;28;20029;-73
2022/02/28 09:34:06;;;;;;;5.85;4.18;;;;;;;14.77;27.71;103017.63;5033309;28;20017;-73
2022/02/28 09:36:31;;;;;;;6.95;4.28;;;;;;;16.66;25.87;103011.03;5051382;28;20028;-73
2022/02/28 09:38:58;;;;;;;11.02;4.57;;;;;;;16.70;25.38;103012.28;5033279;28;20025;-73
2022/02/28 09:41:24;;;;;;;6.07;4.03;;;;;;;15.72;26.12;103019.75;5033363;28;20040;-73
2022/02/28 09:43:50;;;;;;;6.60;4.10;;;;;;;15.15;27.18;103015.38;5035202;28;20021;-72
2022/02/28 09:46:17;;;;;;;7.32;4.10;;;;;;;15.31;25.77;103022.38;5035282;28;20021;-72
2022/02/28 09:48:44;;;;;;;10.07;4.18;;;;;;;14.79;26.79;103004.44;5052960;28;20617;-72
2022/02/28 09:51:09;;;;;;;7.68;4.40;;;;;;;16.64;25.36;103014.78;5052978;28;20021;-72
2022/02/28 09:53:34;;;;;;;6.10;4.10;;;;;;;16.70;24.81;103003.66;5055349;28;20033;-73
2022/02/28 09:56:02;;;;;;;6.45;3.88;;;;;;;17.38;24.22;102996.78;5039465;28;20021;-73
2022/02/28 09:58:29;;;;;;;8.70;4.43;;;;;;;15.54;25.74;103006.88;5035161;28;20021;-73
2022/02/28 10:00:56;;;;;;;6.70;4.13;;;;;;;17.00;24.58;102990.72;5053162;28;20032;-74
2022/02/28 10:03:22;;;;;;;7.72;4.20;;;;;;;17.90;23.61;103016.03;5042828;28;20074;-74
2022/02/28 10:05:47;;;;;;;5.97;4.05;;;;;;;18.45;23.10;103017.28;5057727;28;20036;-73
2022/02/28 10:08:14;;;;;;;6.55;3.90;;;;;;;19.47;21.87;103016.16;5057276;28;20029;-74
2022/02/28 10:10:40;;;;;;;7.15;4.07;;;;;;;19.92;21.24;103014.03;5038945;28;20028;-73
2022/02/28 10:13:06;;;;;;;7.30;3.95;;;;;;;20.58;20.55;103021.34;5056866;28;20025;-74
2022/02/28 10:15:32;;;;;;;8.02;4.57;;;;;;;20.21;20.79;103054.94;5057619;28;20025;-72
2022/02/28 10:18:00;;;;;;;7.32;4.10;;;;;;;17.56;22.77;103030.41;5040211;28;20048;-72
2022/02/28 10:20:25;;;;;;;7.13;4.20;;;;;;;16.24;24.47;103017.44;5056565;28;20025;-71
2022/02/28 10:22:52;;;;;;;6.70;4.40;;;;;;;16.69;24.02;103012.47;5056511;28;20035;-72
2022/02/28 10:25:35;;;;;;;7.63;4.70;;;;;;;19.47;21.77;103000.44;5037060;28;20271;-72
2022/02/28 10:28:15;;;;;;;7.13;4.40;;;;;;;16.68;23.94;103006.41;5055951;28;20031;-72
2022/02/28 10:30:51;;;;;;;12.18;4.40;;;;;;;15.48;25.13;102999.72;5055298;28;20052;-72
2022/02/28 10:33:16;;;;;;;10.63;4.70;;;;;;;17.21;24.36;103005.75;5056421;28;20118;-72
2022/02/28 10:36:00;;;;;;;14.80;4.95;;;;;;;16.16;25.08;103009.63;5056720;28;20048;-72
2022/02/28 10:38:29;;;;;;;9.00;5.05;;;;;;;17.05;24.53;103014.53;5056398;28;20037;-72
2022/02/28 10:40:55;;;;;;;7.43;4.82;;;;;;;17.52;24.05;103023.91;5056491;28;20396;-73
2022/02/28 10:43:30;;;;;;;8.10;4.95;;;;;;;17.34;23.92;103013.78;5038199;28;20016;-72
2022/02/28 10:45:57;;;;;;;11.52;4.50;;;;;;;14.42;27.46;103018.63;5056504;28;20468;-70
2022/02/28 10:48:26;;;;;;;9.20;5.20;;;;;;;13.04;29.56;102993.44;5037372;28;20399;-72
2022/02/28 10:50:52;;;;;;;8.23;5.10;;;;;;;11.28;33.16;103001.13;5054266;28;20031;-72
2022/02/28 10:53:21;;;;;;;9.50;5.28;;;;;;;11.68;32.27;103012.22;5054794;28;20396;-71
2022/02/28 10:55:48;;;;;;;8.85;5.20;;;;;;;12.00;32.46;103016.25;5036617;28;20021;-71
2022/02/28 10:58:24;;;;;;;8.23;5.15;;;;;;;12.29;32.34;103009.19;5054167;28;20021;-72
2022/02/28 11:01:06;;;;;;;8.52;4.80;;;;;;;12.49;32.80;103012.50;5054614;28;20032;-72
2022/02/28 11:03:46;;;;;;;8.80;5.07;;;;;;;12.06;32.43;103008.75;5036536;28;20488;-72
2022/02/28 11:06:18;;;;;;;11.85;5.32;;;;;;;11.49;33.50;103005.31;5053758;28;20099;-72
2022/02/28 11:08:43;;;;;;;8.05;4.70;;;;;;;12.66;32.86;103010.91;5035864;28;20036;-72
2022/02/28 11:11:11;;;;;;;8.50;5.00;;;;;;;12.51;31.80;103013.16;5035627;28;20017;-72
2022/02/28 11:13:36;;;;;;;10.05;5.35;;;;;;;11.81;33.44;103010.16;5052511;28;20029;-73
2022/02/28 11:16:02;;;;;;;8.07;4.93;;;;;;;12.47;32.33;103014.41;5053499;28;20029;-72
2022/02/28 11:18:28;;;;;;;8.57;4.93;;;;;;;12.82;31.95;103005.88;5035559;28;20025;-72
2022/02/28 11:20:56;;;;;;;14.07;5.43;;;;;;;12.59;32.59;103007.25;5054295;28;20389;-72
2022/02/28 11:23:23;;;;;;;7.65;5.00;;;;;;;12.30;33.34;103017.78;5037366;28;20024;-72